createdAt,value
2022-12-09T00:05:53.833Z,25.70
2022-12-09T00:15:57.250Z,25.00
2022-12-09T00:26:00.620Z,24.50
2022-12-09T00:36:09.303Z,23.40
2022-12-09T00:46:13.918Z,24.40
2022-12-09T00:56:17.367Z,23.10
2022-12-09T01:06:23.789Z,27.80
2022-12-09T01:16:29.942Z,25.90
2022-12-09T01:26:33.442Z,25.70
2022-12-09T01:36:36.882Z,24.80
2022-12-09T01:46:41.369Z,24.60
2022-12-09T01:56:44.698Z,23.10
2022-12-09T02:06:48.290Z,22.10
2022-12-09T02:17:14.610Z,22.30
2022-12-09T02:27:28.785Z,22.00
2022-12-09T02:37:56.554Z,27.00
2022-12-09T02:48:05.355Z,24.50
2022-12-09T02:58:26.061Z,23.70
2022-12-09T03:09:13.896Z,23.20
2022-12-09T03:19:20.048Z,24.50
2022-12-09T03:29:26.243Z,23.60
2022-12-09T03:39:34.570Z,24.00
2022-12-09T03:49:39.658Z,22.30
2022-12-09T03:59:47.198Z,22.60
2022-12-09T04:09:50.698Z,26.60
2022-12-09T04:19:54.384Z,24.90
2022-12-09T04:29:57.546Z,22.70
2022-12-09T04:40:00.708Z,23.10
2022-12-09T04:50:06.007Z,26.20
2022-12-09T05:00:11.302Z,24.60
2022-12-09T05:10:15.165Z,22.60
2022-12-09T05:20:18.855Z,23.50
2022-12-09T05:30:22.344Z,24.30
2022-12-09T05:40:25.884Z,27.70
2022-12-09T05:50:29.520Z,25.30
2022-12-09T06:00:34.139Z,25.20
2022-12-09T06:10:42.215Z,24.50
2022-12-09T06:20:46.090Z,24.60
2022-12-09T06:40:53.740Z,27.50
2022-12-09T06:50:56.908Z,26.80
2022-12-09T07:01:23.028Z,24.70
2022-12-09T07:11:27.382Z,25.90
2022-12-09T07:21:31.024Z,28.50
2022-12-09T07:31:35.564Z,36.80
2022-12-09T07:41:40.014Z,33.00
2022-12-09T07:51:44.040Z,46.30
2022-12-09T08:11:50.947Z,34.40
2022-12-09T08:21:54.939Z,42.60
2022-12-09T08:31:59.184Z,37.40
2022-12-09T08:42:03.038Z,34.90
2022-12-09T08:52:06.556Z,36.40
2022-12-09T09:02:10.093Z,36.10
2022-12-09T09:12:14.062Z,36.30
2022-12-09T09:22:17.647Z,37.40
2022-12-09T09:32:21.358Z,36.70
2022-12-09T09:42:34.476Z,37.30
2022-12-09T09:52:42.691Z,38.30
2022-12-09T10:03:00.720Z,37.60
2022-12-09T10:13:18.813Z,37.80
2022-12-09T10:23:24.415Z,43.70
2022-12-09T10:33:30.632Z,36.10
2022-12-09T10:43:41.037Z,35.10
2022-12-09T10:53:53.206Z,37.60
2022-12-09T11:03:56.939Z,40.00
2022-12-09T11:14:00.407Z,38.30
2022-12-09T11:24:04.920Z,35.90
2022-12-09T11:34:18.917Z,39.10
2022-12-09T11:44:33.239Z,40.50
2022-12-09T11:54:45.499Z,39.50
2022-12-09T12:04:51.321Z,42.60
2022-12-09T12:14:59.118Z,41.10
2022-12-09T12:25:17.151Z,41.80
2022-12-09T12:35:45.757Z,39.90
2022-12-09T12:46:17.811Z,40.40
2022-12-09T12:56:30.668Z,38.50
2022-12-09T13:06:57.215Z,36.50
2022-12-09T13:17:05.782Z,38.20
2022-12-09T13:27:39.636Z,39.40
2022-12-09T13:37:42.733Z,40.20
2022-12-09T13:47:47.583Z,37.30
2022-12-09T14:08:07.360Z,38.90
2022-12-09T14:18:30.054Z,41.10
2022-12-09T14:28:33.212Z,46.90
2022-12-09T14:39:16.075Z,55.40
2022-12-09T14:49:29.771Z,54.40
2022-12-09T14:59:35.801Z,52.80
2022-12-09T15:09:48.650Z,50.40
2022-12-09T15:20:00.216Z,55.20
2022-12-09T15:30:21.200Z,53.40
2022-12-09T15:40:29.420Z,49.30
2022-12-09T15:50:35.273Z,49.00
2022-12-09T16:00:45.379Z,52.30
2022-12-09T16:10:51.150Z,61.80
2022-12-09T16:21:16.590Z,65.90
2022-12-09T16:31:19.822Z,59.90
2022-12-09T16:42:01.972Z,64.20
2022-12-09T16:52:05.614Z,67.60
2022-12-09T17:02:21.186Z,78.90
2022-12-09T17:12:24.717Z,77.30
2022-12-09T17:22:27.967Z,73.10
2022-12-09T17:32:31.176Z,68.50
2022-12-09T17:42:34.347Z,61.40
2022-12-09T17:52:37.825Z,59.50
2022-12-09T18:02:41.321Z,57.60
2022-12-09T18:12:44.893Z,59.10
2022-12-09T18:22:48.149Z,49.60
2022-12-09T18:32:51.336Z,51.00
2022-12-09T18:42:54.460Z,49.90
2022-12-09T18:52:57.587Z,51.90
2022-12-09T19:03:00.855Z,75.80
2022-12-09T19:13:05.073Z,49.90
2022-12-09T19:23:09.136Z,54.30
2022-12-09T19:33:12.359Z,49.50
2022-12-09T19:43:15.497Z,50.70
2022-12-09T19:53:18.708Z,52.00
2022-12-09T20:03:21.944Z,50.20
2022-12-09T20:13:30.162Z,48.00
2022-12-09T20:23:36.407Z,51.30
2022-12-09T20:33:40.436Z,49.50
2022-12-09T20:43:45.951Z,50.60
2022-12-09T20:53:50.007Z,48.30
2022-12-09T21:03:54.369Z,47.80
2022-12-09T21:24:03.133Z,47.50
2022-12-09T21:34:07.461Z,51.90
2022-12-09T21:54:17.507Z,57.30
2022-12-09T22:04:20.606Z,53.90
2022-12-09T22:14:23.722Z,50.50
2022-12-09T22:24:26.889Z,55.80
2022-12-09T22:34:30.021Z,54.70
2022-12-09T22:44:33.229Z,53.10
2022-12-09T22:54:36.438Z,50.80
2022-12-09T23:04:39.659Z,49.60
2022-12-09T23:14:42.792Z,54.10
2022-12-09T23:24:48.089Z,52.00
2022-12-09T23:34:51.953Z,47.20
2022-12-09T23:44:55.380Z,47.50
2022-12-09T23:55:03.904Z,51.50
